sensor_id;sensor_type;location;lat;lon;timestamp;pressure;altitude;pressure_sealevel;temperature;humidity
50859;BME280;36826;47.514;19.056;2022-10-16T00:01:10;100574.66;;;28.32;44.48
50859;BME280;36826;47.514;19.056;2022-10-16T00:03:39;100571.41;;;28.35;44.87
50859;BME280;36826;47.514;19.056;2022-10-16T00:06:05;100566.63;;;28.30;44.61
50859;BME280;36826;47.514;19.056;2022-10-16T00:08:31;100569.50;;;28.36;44.81
50859;BME280;36826;47.514;19.056;2022-10-16T00:11:05;100565.88;;;28.35;44.61
50859;BME280;36826;47.514;19.056;2022-10-16T00:13:32;100564.47;;;28.32;44.55
50859;BME280;36826;47.514;19.056;2022-10-16T00:15:59;100568.66;;;28.35;44.51
50859;BME280;36826;47.514;19.056;2022-10-16T00:18:26;100570.31;;;28.36;44.49
50859;BME280;36826;47.514;19.056;2022-10-16T00:20:51;100568.66;;;28.35;44.59
50859;BME280;36826;47.514;19.056;2022-10-16T00:23:17;100575.84;;;28.36;44.84
50859;BME280;36826;47.514;19.056;2022-10-16T00:25:43;100576.34;;;28.33;44.60
50859;BME280;36826;47.514;19.056;2022-10-16T00:28:08;100579.66;;;28.35;44.83
50859;BME280;36826;47.514;19.056;2022-10-16T00:30:37;100584.09;;;28.36;44.46
50859;BME280;36826;47.514;19.056;2022-10-16T00:33:03;100582.19;;;28.37;44.40
50859;BME280;36826;47.514;19.056;2022-10-16T00:35:28;100593.22;;;28.37;44.84
50859;BME280;36826;47.514;19.056;2022-10-16T00:37:54;100592.34;;;28.36;44.59
50859;BME280;36826;47.514;19.056;2022-10-16T00:40:19;100594.03;;;28.37;44.61
50859;BME280;36826;47.514;19.056;2022-10-16T00:42:45;100590.69;;;28.35;44.53
50859;BME280;36826;47.514;19.056;2022-10-16T00:45:10;100588.19;;;28.33;44.39
50859;BME280;36826;47.514;19.056;2022-10-16T00:47:42;100596.19;;;28.35;44.79
50859;BME280;36826;47.514;19.056;2022-10-16T00:52:44;100595.63;;;28.33;44.54
50859;BME280;36826;47.514;19.056;2022-10-16T00:55:11;100598.38;;;28.33;44.40
50859;BME280;36826;47.514;19.056;2022-10-16T00:57:37;100597.19;;;28.29;44.50
50859;BME280;36826;47.514;19.056;2022-10-16T01:00:06;100592.75;;;28.28;44.56
50859;BME280;36826;47.514;19.056;2022-10-16T01:02:33;100609.88;;;28.30;44.42
50859;BME280;36826;47.514;19.056;2022-10-16T01:04:58;100612.38;;;28.31;44.56
50859;BME280;36826;47.514;19.056;2022-10-16T01:10:06;100618.75;;;28.32;44.66
50859;BME280;36826;47.514;19.056;2022-10-16T01:20:34;100614.19;;;28.26;44.74
50859;BME280;36826;47.514;19.056;2022-10-16T01:26:04;100618.75;;;28.32;44.55
50859;BME280;36826;47.514;19.056;2022-10-16T01:31:15;100622.31;;;28.32;44.70
50859;BME280;36826;47.514;19.056;2022-10-16T01:33:46;100623.72;;;28.35;44.54
50859;BME280;36826;47.514;19.056;2022-10-16T01:36:20;100623.66;;;28.30;44.58
50859;BME280;36826;47.514;19.056;2022-10-16T01:38:49;100618.63;;;28.27;44.77
50859;BME280;36826;47.514;19.056;2022-10-16T01:41:26;100621.38;;;28.27;44.92
50859;BME280;36826;47.514;19.056;2022-10-16T01:46:24;100625.56;;;28.29;44.49
50859;BME280;36826;47.514;19.056;2022-10-16T01:48:52;100629.97;;;28.30;44.61
50859;BME280;36826;47.514;19.056;2022-10-16T01:51:18;100634.88;;;28.28;44.55
50859;BME280;36826;47.514;19.056;2022-10-16T01:53:50;100634.88;;;28.28;44.79
50859;BME280;36826;47.514;19.056;2022-10-16T01:56:18;100637.91;;;28.27;44.70
50859;BME280;36826;47.514;19.056;2022-10-16T01:58:58;100637.06;;;28.26;44.38
50859;BME280;36826;47.514;19.056;2022-10-16T02:01:29;100642.22;;;28.23;44.58
50859;BME280;36826;47.514;19.056;2022-10-16T02:03:59;100642.81;;;28.25;44.85
50859;BME280;36826;47.514;19.056;2022-10-16T02:06:27;100638.38;;;28.24;44.45
50859;BME280;36826;47.514;19.056;2022-10-16T02:08:54;100647.25;;;28.26;44.77
50859;BME280;36826;47.514;19.056;2022-10-16T02:11:20;100653.34;;;28.28;44.52
50859;BME280;36826;47.514;19.056;2022-10-16T02:13:50;100654.16;;;28.28;44.71
50859;BME280;36826;47.514;19.056;2022-10-16T02:16:16;100655.25;;;28.27;44.65
50859;BME280;36826;47.514;19.056;2022-10-16T02:18:43;100650.59;;;28.28;44.66
50859;BME280;36826;47.514;19.056;2022-10-16T02:21:35;100646.97;;;28.27;44.70
50859;BME280;36826;47.514;19.056;2022-10-16T02:26:52;100648.44;;;28.30;44.44
50859;BME280;36826;47.514;19.056;2022-10-16T02:29:22;100644.22;;;28.27;44.53
50859;BME280;36826;47.514;19.056;2022-10-16T02:31:54;100647.25;;;28.26;44.81
50859;BME280;36826;47.514;19.056;2022-10-16T02:34:21;100647.25;;;28.26;44.58
50859;BME280;36826;47.514;19.056;2022-10-16T02:36:50;100649.50;;;28.29;44.54
50859;BME280;36826;47.514;19.056;2022-10-16T02:39:16;100651.19;;;28.30;44.70
50859;BME280;36826;47.514;19.056;2022-10-16T02:41:42;100654.78;;;28.30;44.53
50859;BME280;36826;47.514;19.056;2022-10-16T02:44:08;100663.03;;;28.30;44.48
50859;BME280;36826;47.514;19.056;2022-10-16T02:46:33;100653.34;;;28.28;44.70
50859;BME280;36826;47.514;19.056;2022-10-16T02:48:58;100652.75;;;28.26;44.69
50859;BME280;36826;47.514;19.056;2022-10-16T02:51:24;100654.78;;;28.30;44.74
50859;BME280;36826;47.514;19.056;2022-10-16T02:53:49;100660.63;;;28.34;44.47
50859;BME280;36826;47.514;19.056;2022-10-16T02:56:14;100663.28;;;28.29;44.57
50859;BME280;36826;47.514;19.056;2022-10-16T02:58:40;100659.94;;;28.27;44.50
50859;BME280;36826;47.514;19.056;2022-10-16T03:01:05;100666.63;;;28.31;44.66
50859;BME280;36826;47.514;19.056;2022-10-16T03:03:31;100661.13;;;28.31;44.66
50859;BME280;36826;47.514;19.056;2022-10-16T03:05:56;100671.56;;;28.29;44.65
50859;BME280;36826;47.514;19.056;2022-10-16T03:08:22;100664.63;;;28.26;44.53
50859;BME280;36826;47.514;19.056;2022-10-16T03:10:51;100666.53;;;28.26;44.79
50859;BME280;36826;47.514;19.056;2022-10-16T03:13:16;100669.88;;;28.28;44.73
50859;BME280;36826;47.514;19.056;2022-10-16T03:15:42;100670.13;;;28.26;44.70
50859;BME280;36826;47.514;19.056;2022-10-16T03:18:07;100674.06;;;28.30;44.76
50859;BME280;36826;47.514;19.056;2022-10-16T03:20:33;100668.78;;;28.29;44.48
50859;BME280;36826;47.514;19.056;2022-10-16T03:22:58;100673.44;;;28.28;44.41
50859;BME280;36826;47.514;19.056;2022-10-16T03:25:24;100675.97;;;28.30;44.78
50859;BME280;36826;47.514;19.056;2022-10-16T03:27:49;100678.72;;;28.30;44.35
50859;BME280;36826;47.514;19.056;2022-10-16T03:30:14;100685.31;;;28.29;44.63
50859;BME280;36826;47.514;19.056;2022-10-16T03:32:41;100689.16;;;28.28;44.71
50859;BME280;36826;47.514;19.056;2022-10-16T03:35:06;100694.19;;;28.31;44.54
50859;BME280;36826;47.514;19.056;2022-10-16T03:37:32;100693.59;;;28.29;44.68
50859;BME280;36826;47.514;19.056;2022-10-16T03:39:57;100697.16;;;28.29;44.62
50859;BME280;36826;47.514;19.056;2022-10-16T03:42:23;100699.09;;;28.29;44.68
50859;BME280;36826;47.514;19.056;2022-10-16T03:44:49;100691.31;;;28.26;44.47
50859;BME280;36826;47.514;19.056;2022-10-16T03:47:14;100700.16;;;28.28;44.63
50859;BME280;36826;47.514;19.056;2022-10-16T03:49:40;100702.31;;;28.26;44.56
50859;BME280;36826;47.514;19.056;2022-10-16T03:52:05;100704.34;;;28.30;44.42
50859;BME280;36826;47.514;19.056;2022-10-16T03:54:31;100699.69;;;28.31;44.63
50859;BME280;36826;47.514;19.056;2022-10-16T03:56:56;100699.69;;;28.31;44.35
50859;BME280;36826;47.514;19.056;2022-10-16T03:59:22;100701.00;;;28.28;44.36
50859;BME280;36826;47.514;19.056;2022-10-16T04:01:47;100708.19;;;28.29;44.72
50859;BME280;36826;47.514;19.056;2022-10-16T04:04:12;100701.59;;;28.30;44.58
50859;BME280;36826;47.514;19.056;2022-10-16T04:06:38;100705.69;;;28.28;44.59
50859;BME280;36826;47.514;19.056;2022-10-16T04:09:03;100711.66;;;28.25;44.74
50859;BME280;36826;47.514;19.056;2022-10-16T04:11:29;100708.69;;;28.26;44.81
50859;BME280;36826;47.514;19.056;2022-10-16T04:13:55;100714.19;;;28.26;44.44
50859;BME280;36826;47.514;19.056;2022-10-16T04:16:21;100708.31;;;28.23;44.42
50859;BME280;36826;47.514;19.056;2022-10-16T04:18:46;100715.50;;;28.24;44.47
50859;BME280;36826;47.514;19.056;2022-10-16T04:21:11;100713.34;;;28.26;44.64
50859;BME280;36826;47.514;19.056;2022-10-16T04:23:37;100713.81;;;28.23;44.61
50859;BME280;36826;47.514;19.056;2022-10-16T04:26:02;100705.81;;;28.21;44.60
50859;BME280;36826;47.514;19.056;2022-10-16T04:28:28;100704.13;;;28.20;44.54
50859;BME280;36826;47.514;19.056;2022-10-16T04:30:53;100712.13;;;28.22;44.53
50859;BME280;36826;47.514;19.056;2022-10-16T04:33:19;100714.78;;;28.16;44.75
50859;BME280;36826;47.514;19.056;2022-10-16T04:35:44;100725.69;;;28.23;44.46
50859;BME280;36826;47.514;19.056;2022-10-16T04:38:09;100719.81;;;28.20;44.49
50859;BME280;36826;47.514;19.056;2022-10-16T04:40:35;100718.16;;;28.19;44.56
50859;BME280;36826;47.514;19.056;2022-10-16T04:43:03;100721.97;;;28.17;44.78
50859;BME280;36826;47.514;19.056;2022-10-16T04:45:28;100729.16;;;28.19;44.96
50859;BME280;36826;47.514;19.056;2022-10-16T04:47:57;100721.97;;;28.17;44.75
50859;BME280;36826;47.514;19.056;2022-10-16T04:50:23;100736.34;;;28.20;44.76
50859;BME280;36826;47.514;19.056;2022-10-16T04:52:48;100739.78;;;28.15;44.78
50859;BME280;36826;47.514;19.056;2022-10-16T04:55:13;100730.97;;;28.13;44.63
50859;BME280;36826;47.514;19.056;2022-10-16T04:57:39;100735.97;;;28.16;44.79
50859;BME280;36826;47.514;19.056;2022-10-16T05:00:05;100739.78;;;28.15;44.86
50859;BME280;36826;47.514;19.056;2022-10-16T05:02:31;100745.09;;;28.16;44.62
50859;BME280;36826;47.514;19.056;2022-10-16T05:04:56;100751.19;;;28.19;44.76
50859;BME280;36826;47.514;19.056;2022-10-16T05:07:22;100751.78;;;28.21;44.83
50859;BME280;36826;47.514;19.056;2022-10-16T05:09:47;100744.00;;;28.17;44.55
50859;BME280;36826;47.514;19.056;2022-10-16T05:12:12;100739.09;;;28.20;44.46
50859;BME280;36826;47.514;19.056;2022-10-16T05:14:38;100742.69;;;28.20;44.55
50859;BME280;36826;47.514;19.056;2022-10-16T05:17:03;100746.03;;;28.22;44.52
50859;BME280;36826;47.514;19.056;2022-10-16T05:19:29;100745.19;;;28.22;44.90
50859;BME280;36826;47.514;19.056;2022-10-16T05:21:54;100753.44;;;28.22;44.65
50859;BME280;36826;47.514;19.056;2022-10-16T05:24:19;100749.41;;;28.24;44.67
50859;BME280;36826;47.514;19.056;2022-10-16T05:26:45;100759.09;;;28.27;44.39
50859;BME280;36826;47.514;19.056;2022-10-16T05:29:10;100753.09;;;28.30;44.67
50859;BME280;36826;47.514;19.056;2022-10-16T05:31:36;100764.72;;;28.32;44.28
50859;BME280;36826;47.514;19.056;2022-10-16T05:34:02;100771.66;;;28.35;44.65
50859;BME280;36826;47.514;19.056;2022-10-16T05:36:27;100767.81;;;28.36;44.54
50859;BME280;36826;47.514;19.056;2022-10-16T05:38:53;100770.69;;;28.41;44.15
50859;BME280;36826;47.514;19.056;2022-10-16T05:41:19;100774.28;;;28.41;44.22
50859;BME280;36826;47.514;19.056;2022-10-16T05:43:50;100774.88;;;28.43;44.19
50859;BME280;36826;47.514;19.056;2022-10-16T05:46:16;100779.94;;;28.46;43.80
50859;BME280;36826;47.514;19.056;2022-10-16T05:48:42;100773.44;;;28.53;43.97
50859;BME280;36826;47.514;19.056;2022-10-16T05:51:11;100776.78;;;28.55;43.67
50859;BME280;36826;47.514;19.056;2022-10-16T05:53:38;100773.56;;;28.58;43.87
50859;BME280;36826;47.514;19.056;2022-10-16T05:56:05;100770.28;;;28.61;43.65
50859;BME280;36826;47.514;19.056;2022-10-16T05:58:33;100777.00;;;28.65;43.74
50859;BME280;36826;47.514;19.056;2022-10-16T06:01:11;100780.53;;;28.72;43.38
50859;BME280;36826;47.514;19.056;2022-10-16T06:03:37;100789.13;;;28.76;43.36
50859;BME280;36826;47.514;19.056;2022-10-16T06:06:14;100798.69;;;28.85;43.45
50859;BME280;36826;47.514;19.056;2022-10-16T06:08:41;100800.72;;;28.90;43.29
50859;BME280;36826;47.514;19.056;2022-10-16T06:11:11;100798.91;;;28.96;43.41
50859;BME280;36826;47.514;19.056;2022-10-16T06:13:37;100802.00;;;28.99;43.12
50859;BME280;36826;47.514;19.056;2022-10-16T06:16:03;100807.38;;;29.06;43.11
50859;BME280;36826;47.514;19.056;2022-10-16T06:18:29;100804.47;;;29.13;43.03
50859;BME280;36826;47.514;19.056;2022-10-16T06:20:55;100807.47;;;29.23;42.93
50859;BME280;36826;47.514;19.056;2022-10-16T06:23:21;100801.69;;;29.24;42.74
50859;BME280;36826;47.514;19.056;2022-10-16T06:25:46;100810.91;;;29.30;42.72
50859;BME280;36826;47.514;19.056;2022-10-16T06:28:13;100809.38;;;29.34;42.71
50859;BME280;36826;47.514;19.056;2022-10-16T06:30:39;100821.34;;;29.40;42.77
50859;BME280;36826;47.514;19.056;2022-10-16T06:33:05;100826.38;;;29.43;42.57
50859;BME280;36826;47.514;19.056;2022-10-16T06:35:30;100828.47;;;29.53;42.46
50859;BME280;36826;47.514;19.056;2022-10-16T06:37:57;100829.38;;;29.59;42.50
50859;BME280;36826;47.514;19.056;2022-10-16T06:40:23;100845.81;;;29.65;42.08
50859;BME280;36826;47.514;19.056;2022-10-16T06:42:48;100848.06;;;29.68;42.02
50859;BME280;36826;47.514;19.056;2022-10-16T06:45:14;100848.19;;;29.74;41.98
50859;BME280;36826;47.514;19.056;2022-10-16T06:47:39;100845.81;;;29.82;41.49
50859;BME280;36826;47.514;19.056;2022-10-16T06:50:05;100854.81;;;29.90;41.62
50859;BME280;36826;47.514;19.056;2022-10-16T06:52:34;100851.41;;;29.99;41.31
50859;BME280;36826;47.514;19.056;2022-10-16T06:54:59;100853.75;;;30.08;41.53
50859;BME280;36826;47.514;19.056;2022-10-16T06:57:25;100843.38;;;30.15;40.86
50859;BME280;36826;47.514;19.056;2022-10-16T06:59:50;100852.34;;;30.22;40.58
50859;BME280;36826;47.514;19.056;2022-10-16T07:02:16;100864.31;;;30.28;40.65
50859;BME280;36826;47.514;19.056;2022-10-16T07:04:41;100864.78;;;30.42;40.76
50859;BME280;36826;47.514;19.056;2022-10-16T07:07:07;100868.56;;;30.53;40.54
50859;BME280;36826;47.514;19.056;2022-10-16T07:09:32;100867.31;;;30.60;40.13
50859;BME280;36826;47.514;19.056;2022-10-16T07:11:58;100862.72;;;30.66;39.96
50859;BME280;36826;47.514;19.056;2022-10-16T07:14:23;100873.84;;;30.71;40.15
50859;BME280;36826;47.514;19.056;2022-10-16T07:16:49;100871.66;;;30.73;40.35
50859;BME280;36826;47.514;19.056;2022-10-16T07:19:15;100884.56;;;30.85;39.60
50859;BME280;36826;47.514;19.056;2022-10-16T07:21:43;100890.41;;;30.88;39.69
50859;BME280;36826;47.514;19.056;2022-10-16T07:24:13;100888.28;;;30.96;39.63
50859;BME280;36826;47.514;19.056;2022-10-16T07:26:40;100885.66;;;31.06;39.41
50859;BME280;36826;47.514;19.056;2022-10-16T07:29:15;100893.88;;;31.18;39.42
50859;BME280;36826;47.514;19.056;2022-10-16T07:31:41;100903.06;;;31.24;39.20
50859;BME280;36826;47.514;19.056;2022-10-16T07:34:07;100909.75;;;31.28;39.43
50859;BME280;36826;47.514;19.056;2022-10-16T07:36:32;100910.34;;;31.30;38.99
50859;BME280;36826;47.514;19.056;2022-10-16T07:38:58;100904.34;;;31.38;38.69
50859;BME280;36826;47.514;19.056;2022-10-16T07:41:23;100908.28;;;31.42;38.81
50859;BME280;36826;47.514;19.056;2022-10-16T07:43:51;100912.84;;;31.53;38.95
50859;BME280;36826;47.514;19.056;2022-10-16T07:46:17;100907.81;;;31.50;38.74
50859;BME280;36826;47.514;19.056;2022-10-16T07:48:43;100907.16;;;31.65;38.69
50859;BME280;36826;47.514;19.056;2022-10-16T07:51:14;100903.63;;;31.70;38.28
50859;BME280;36826;47.514;19.056;2022-10-16T07:53:40;100909.53;;;31.79;38.30
50859;BME280;36826;47.514;19.056;2022-10-16T07:56:07;100912.38;;;31.84;38.19
50859;BME280;36826;47.514;19.056;2022-10-16T07:58:34;100916.84;;;31.90;37.94
50859;BME280;36826;47.514;19.056;2022-10-16T08:01:07;100910.75;;;31.88;38.52
50859;BME280;36826;47.514;19.056;2022-10-16T08:03:33;100916.03;;;31.90;38.50
50859;BME280;36826;47.514;19.056;2022-10-16T08:05:59;100915.50;;;31.93;37.90
50859;BME280;36826;47.514;19.056;2022-10-16T08:08:25;100927.09;;;31.90;38.36
50859;BME280;36826;47.514;19.056;2022-10-16T08:10:52;100926.59;;;31.93;38.16
50859;BME280;36826;47.514;19.056;2022-10-16T08:13:17;100929.19;;;32.05;37.62
50859;BME280;36826;47.514;19.056;2022-10-16T08:15:44;100930.03;;;32.05;37.67
50859;BME280;36826;47.514;19.056;2022-10-16T08:18:10;100927.78;;;32.02;37.73
50859;BME280;36826;47.514;19.056;2022-10-16T08:20:36;100938.28;;;32.00;37.67
50859;BME280;36826;47.514;19.056;2022-10-16T08:23:02;100938.59;;;32.04;37.73
50859;BME280;36826;47.514;19.056;2022-10-16T08:25:28;100945.06;;;32.14;37.68
50859;BME280;36826;47.514;19.056;2022-10-16T08:27:53;100937.34;;;32.17;37.73
50859;BME280;36826;47.514;19.056;2022-10-16T08:30:21;100949.53;;;32.16;37.49
50859;BME280;36826;47.514;19.056;2022-10-16T08:32:46;100956.97;;;32.15;37.65
50859;BME280;36826;47.514;19.056;2022-10-16T08:35:12;100952.34;;;32.21;37.78
50859;BME280;36826;47.514;19.056;2022-10-16T08:37:38;100957.75;;;32.33;37.41
50859;BME280;36826;47.514;19.056;2022-10-16T08:40:06;100959.22;;;32.18;37.29
50859;BME280;36826;47.514;19.056;2022-10-16T08:43:07;100962.53;;;32.42;37.20
50859;BME280;36826;47.514;19.056;2022-10-16T08:48:43;100963.00;;;32.34;37.22
50859;BME280;36826;47.514;19.056;2022-10-16T08:51:13;100952.47;;;32.31;37.18
50859;BME280;36826;47.514;19.056;2022-10-16T08:53:49;100949.25;;;32.44;37.25
50859;BME280;36826;47.514;19.056;2022-10-16T08:56:17;100956.47;;;32.46;37.11
50859;BME280;36826;47.514;19.056;2022-10-16T08:58:45;100964.69;;;32.35;37.53
50859;BME280;36826;47.514;19.056;2022-10-16T09:01:12;100961.69;;;32.42;37.04
50859;BME280;36826;47.514;19.056;2022-10-16T09:17:49;100969.31;;;31.75;38.09
50859;BME280;36826;47.514;19.056;2022-10-16T09:22:53;100962.78;;;31.64;38.23
50859;BME280;36826;47.514;19.056;2022-10-16T09:25:21;100961.59;;;31.55;38.52
50859;BME280;36826;47.514;19.056;2022-10-16T09:27:48;100970.06;;;31.48;38.65
50859;BME280;36826;47.514;19.056;2022-10-16T09:30:19;100963.63;;;31.42;38.73
50859;BME280;36826;47.514;19.056;2022-10-16T09:32:47;100961.88;;;31.36;38.88
50859;BME280;36826;47.514;19.056;2022-10-16T09:35:18;100964.06;;;31.34;38.76
50859;BME280;36826;47.514;19.056;2022-10-16T09:37:46;100968.50;;;31.35;38.81
50859;BME280;36826;47.514;19.056;2022-10-16T09:40:23;100968.28;;;31.36;38.81
50859;BME280;36826;47.514;19.056;2022-10-16T09:42:49;100967.94;;;31.33;38.58
50859;BME280;36826;47.514;19.056;2022-10-16T09:45:22;100975.59;;;31.26;39.26
50859;BME280;36826;47.514;19.056;2022-10-16T09:47:48;100971.06;;;31.19;39.08
50859;BME280;36826;47.514;19.056;2022-10-16T09:50:25;100977.50;;;31.08;39.46
50859;BME280;36826;47.514;19.056;2022-10-16T09:53:02;100984.72;;;31.09;39.77
50859;BME280;36826;47.514;19.056;2022-10-16T09:55:27;100983.50;;;30.83;35.49
50859;BME280;36826;47.514;19.056;2022-10-16T09:57:54;100981.16;;;30.57;37.41
50859;BME280;36826;47.514;19.056;2022-10-16T10:00:21;100983.34;;;30.55;38.20
50859;BME280;36826;47.514;19.056;2022-10-16T10:02:47;100988.63;;;30.57;37.64
50859;BME280;36826;47.514;19.056;2022-10-16T10:05:20;100984.41;;;30.54;37.73
50859;BME280;36826;47.514;19.056;2022-10-16T10:07:54;100980.94;;;30.59;37.51
50859;BME280;36826;47.514;19.056;2022-10-16T10:10:25;100979.38;;;30.51;37.90
50859;BME280;36826;47.514;19.056;2022-10-16T10:12:52;100973.59;;;30.53;38.25
50859;BME280;36826;47.514;19.056;2022-10-16T10:15:18;100972.19;;;30.50;37.97
50859;BME280;36826;47.514;19.056;2022-10-16T10:17:52;100959.13;;;30.45;38.57
50859;BME280;36826;47.514;19.056;2022-10-16T10:20:36;100956.06;;;30.30;39.02
50859;BME280;36826;47.514;19.056;2022-10-16T10:23:21;100956.91;;;30.30;38.55
50859;BME280;36826;47.514;19.056;2022-10-16T10:26:16;100964.03;;;30.26;38.67
50859;BME280;36826;47.514;19.056;2022-10-16T10:28:52;100961.34;;;30.31;38.97
50859;BME280;36826;47.514;19.056;2022-10-16T10:31:52;100954.72;;;30.33;38.99
50859;BME280;36826;47.514;19.056;2022-10-16T10:36:53;100958.00;;;30.29;39.15
50859;BME280;36826;47.514;19.056;2022-10-16T10:39:43;100955.22;;;30.29;39.15
50859;BME280;36826;47.514;19.056;2022-10-16T10:50:39;100953.03;;;30.14;39.58
50859;BME280;36826;47.514;19.056;2022-10-16T11:01:19;100949.00;;;30.05;39.63
50859;BME280;36826;47.514;19.056;2022-10-16T11:04:01;100950.91;;;30.05;39.77
50859;BME280;36826;47.514;19.056;2022-10-16T11:06:31;100957.19;;;30.00;39.93
50859;BME280;36826;47.514;19.056;2022-10-16T11:09:15;100940.63;;;30.00;39.97
50859;BME280;36826;47.514;19.056;2022-10-16T11:12:03;100946.88;;;29.95;40.01
50859;BME280;36826;47.514;19.056;2022-10-16T11:14:40;100938.22;;;29.92;39.82
50859;BME280;36826;47.514;19.056;2022-10-16T11:17:21;100939.53;;;29.89;40.28
50859;BME280;36826;47.514;19.056;2022-10-16T11:20:29;100930.69;;;29.87;40.17
50859;BME280;36826;47.514;19.056;2022-10-16T11:23:02;100936.72;;;29.84;40.26
50859;BME280;36826;47.514;19.056;2022-10-16T11:25:33;100934.69;;;29.79;40.35
50859;BME280;36826;47.514;19.056;2022-10-16T11:28:20;100933.84;;;29.79;40.35
50859;BME280;36826;47.514;19.056;2022-10-16T11:30:57;100929.91;;;29.75;40.40
50859;BME280;36826;47.514;19.056;2022-10-16T11:33:41;100933.16;;;29.72;40.60
50859;BME280;36826;47.514;19.056;2022-10-16T11:38:44;100922.59;;;29.68;40.15
50859;BME280;36826;47.514;19.056;2022-10-16T11:44:34;100920.59;;;29.64;40.43
50859;BME280;36826;47.514;19.056;2022-10-16T11:47:35;100920.25;;;29.60;40.67
50859;BME280;36826;47.514;19.056;2022-10-16T11:50:13;100931.50;;;29.59;40.35
50859;BME280;36826;47.514;19.056;2022-10-16T11:52:55;100924.56;;;29.56;40.60
50859;BME280;36826;47.514;19.056;2022-10-16T11:55:27;100921.22;;;29.54;40.77
50859;BME280;36826;47.514;19.056;2022-10-16T11:58:52;100920.13;;;29.55;40.69
50859;BME280;36826;47.514;19.056;2022-10-16T12:01:17;100911.50;;;29.51;40.98
50859;BME280;36826;47.514;19.056;2022-10-16T12:07:00;100919.53;;;29.53;40.71
50859;BME280;36826;47.514;19.056;2022-10-16T12:09:29;100907.66;;;29.52;40.74
50859;BME280;36826;47.514;19.056;2022-10-16T12:11:56;100907.66;;;29.52;40.67
50859;BME280;36826;47.514;19.056;2022-10-16T12:14:36;100912.09;;;29.53;40.54
50859;BME280;36826;47.514;19.056;2022-10-16T12:17:25;100904.31;;;29.50;40.52
50859;BME280;36826;47.514;19.056;2022-10-16T12:20:25;100904.78;;;29.47;40.56
50859;BME280;36826;47.514;19.056;2022-10-16T12:22:55;100900.59;;;29.45;40.95
50859;BME280;36826;47.514;19.056;2022-10-16T12:25:29;100903.84;;;29.42;40.99
50859;BME280;36826;47.514;19.056;2022-10-16T12:27:59;100901.56;;;29.38;41.02
50859;BME280;36826;47.514;19.056;2022-10-16T12:30:27;100908.16;;;29.37;41.12
50859;BME280;36826;47.514;19.056;2022-10-16T12:32:58;100898.25;;;29.36;41.02
50859;BME280;36826;47.514;19.056;2022-10-16T12:35:28;100900.41;;;29.34;41.13
50859;BME280;36826;47.514;19.056;2022-10-16T12:38:08;100895.34;;;29.31;41.13
50859;BME280;36826;47.514;19.056;2022-10-16T12:40:38;100889.22;;;29.29;41.15
50859;BME280;36826;47.514;19.056;2022-10-16T12:45:46;100895.47;;;29.24;41.44
50859;BME280;36826;47.514;19.056;2022-10-16T12:48:21;100896.81;;;29.22;41.20
50859;BME280;36826;47.514;19.056;2022-10-16T12:50:47;100896.81;;;29.22;41.43
50859;BME280;36826;47.514;19.056;2022-10-16T12:53:24;100906.75;;;29.23;41.56
50859;BME280;36826;47.514;19.056;2022-10-16T12:58:48;100907.25;;;29.20;41.37
50859;BME280;36826;47.514;19.056;2022-10-16T13:01:51;100900.78;;;29.14;41.35
50859;BME280;36826;47.514;19.056;2022-10-16T13:10:25;100913.72;;;29.14;41.27
50859;BME280;36826;47.514;19.056;2022-10-16T13:13:05;100909.28;;;29.13;41.88
50859;BME280;36826;47.514;19.056;2022-10-16T13:18:37;100910.59;;;29.10;41.73
50859;BME280;36826;47.514;19.056;2022-10-16T13:26:43;100914.09;;;29.05;41.57
50859;BME280;36826;47.514;19.056;2022-10-16T13:29:12;100924.28;;;29.05;41.54
50859;BME280;36826;47.514;19.056;2022-10-16T13:31:39;100923.44;;;29.04;41.69
50859;BME280;36826;47.514;19.056;2022-10-16T13:34:05;100925.00;;;29.00;41.51
50859;BME280;36826;47.514;19.056;2022-10-16T13:36:43;100926.69;;;29.01;41.55
50859;BME280;36826;47.514;19.056;2022-10-16T13:39:25;100916.16;;;28.98;41.48
50859;BME280;36826;47.514;19.056;2022-10-16T13:44:26;100917.72;;;28.94;41.87
50859;BME280;36826;47.514;19.056;2022-10-16T13:46:58;100917.72;;;28.94;41.53
50859;BME280;36826;47.514;19.056;2022-10-16T13:49:27;100914.34;;;28.92;41.91
50859;BME280;36826;47.514;19.056;2022-10-16T13:51:58;100921.53;;;28.93;41.71
50859;BME280;36826;47.514;19.056;2022-10-16T13:54:27;100919.88;;;28.92;41.72
50859;BME280;36826;47.514;19.056;2022-10-16T13:56:56;100919.25;;;28.90;41.61
50859;BME280;36826;47.514;19.056;2022-10-16T13:59:35;100919.50;;;28.88;41.64
50859;BME280;36826;47.514;19.056;2022-10-16T14:02:08;100931.84;;;28.86;41.64
50859;BME280;36826;47.514;19.056;2022-10-16T14:04:40;100924.69;;;28.85;41.85
50859;BME280;36826;47.514;19.056;2022-10-16T14:07:05;100928.50;;;28.84;41.73
50859;BME280;36826;47.514;19.056;2022-10-16T14:09:37;100931.50;;;28.82;42.07
50859;BME280;36826;47.514;19.056;2022-10-16T14:12:10;100923.47;;;28.81;41.92
50859;BME280;36826;47.514;19.056;2022-10-16T14:14:45;100922.63;;;28.80;42.15
50859;BME280;36826;47.514;19.056;2022-10-16T14:17:20;100930.66;;;28.82;41.99
50859;BME280;36826;47.514;19.056;2022-10-16T14:19:52;100923.94;;;28.77;41.81
50859;BME280;36826;47.514;19.056;2022-10-16T14:22:39;100916.53;;;28.78;41.59
50859;BME280;36826;47.514;19.056;2022-10-16T14:28:03;100920.09;;;28.78;42.03
50859;BME280;36826;47.514;19.056;2022-10-16T14:30:29;100913.78;;;28.78;41.80